Terminal Aerodrome Forecast
Issued by NWS

Home | Current Version | Previous Version | Text Only | Print | Product List | Glossary On
Versions: 1 2 3 4 5 6 7 8 9 10 11 12
000
FTUS45 KPIH 270500
TAFSUN
TAF
KSUN 270520Z 2706/2806 31006KT P6SM SCT120 BKN200
     FM271800 13006KT P6SM SCT070 BKN120
     FM280300 31007KT P6SM SCT070 BKN120
      AMD LTD TO CLD VIS AND WIND TIL 271400=

USA.gov is the U.S. government's official web portal to all federal, state and local government web resources and services.